Time;durP1;ratioP1;P1;durP2;ratioP2;P2;SDS_P1;SDS_P2;PMS_P1;PMS_P2;Temp;Humidity;BMP_temperature;BMP_pressure;BME280_temperature;BME280_humidity;BME280_pressure;Samples;Min_cycle;Max_cycle;Signal;HPM_P1;HPM_P2
2023/01/11 00:01:28;;;;;;;;;;;;;;;28.02;70.88;100996.88;5073506;27;66402;-38
2023/01/11 00:03:58;;;;;;;;;;;;;;;28.33;70.88;101041.44;5081783;27;70400;-39
2023/01/11 00:06:29;;;;;;;;;;;;;;;28.33;71.10;101041.44;5054628;28;64971;-39
2023/01/11 00:09:00;;;;;;;;;;;;;;;28.38;71.51;101047.09;5080500;27;70579;-43
2023/01/11 00:11:31;;;;;;;;;;;;;;;28.39;71.50;101050.63;5080541;27;66621;-38
2023/01/11 00:14:01;;;;;;;;;;;;;;;28.42;71.42;101045.69;5079358;27;70448;-38
2023/01/11 00:16:32;;;;;;;;;;;;;;;28.42;71.93;101058.34;5079301;27;66147;-39
2023/01/11 00:19:03;;;;;;;;;;;;;;;28.43;72.02;101058.16;5058581;28;69128;-39
2023/01/11 00:21:34;;;;;;;;;;;;;;;28.42;71.37;101056.50;5060198;27;65566;-39
2023/01/11 00:24:04;;;;;;;;;;;;;;;28.42;72.06;101061.91;5079093;27;70157;-39
2023/01/11 00:26:35;;;;;;;;;;;;;;;28.44;71.44;101072.47;5079129;27;65214;-39
2023/01/11 00:29:06;;;;;;;;;;;;;;;28.43;71.96;101084.31;5075761;27;69069;-38
2023/01/11 00:31:38;;;;;;;;;;;;;;;28.48;71.70;101087.25;5081041;27;66198;-40
2023/01/11 00:34:08;;;;;;;;;;;;;;;28.41;71.50;101091.72;5073765;27;69724;-39
2023/01/11 00:36:39;;;;;;;;;;;;;;;28.33;71.39;101094.59;5083935;27;66757;-41
2023/01/11 00:39:10;;;;;;;;;;;;;;;28.31;71.50;101097.50;5082639;27;70515;-42
2023/01/11 00:50:08;;;;;;;;;;;;;;;28.37;70.77;101118.28;5082713;27;69715;-39
2023/01/11 00:52:39;;;;;;;;;;;;;;;28.38;70.77;101119.94;5080292;27;65505;-40
2023/01/11 00:55:13;;;;;;;;;;;;;;;28.39;70.37;101127.03;5083446;27;63632;-40
2023/01/11 00:57:44;;;;;;;;;;;;;;;28.39;70.38;101137.81;5069557;27;64905;-40
2023/01/11 01:00:16;;;;;;;;;;;;;;;27.88;70.71;101050.91;5083474;27;69931;-40
2023/01/11 01:02:47;;;;;;;;;;;;;;;28.41;70.57;101138.44;5077985;27;66809;-42
2023/01/11 01:05:18;;;;;;;;;;;;;;;28.43;70.15;101146.38;5081614;27;68980;-40
2023/01/11 01:07:49;;;;;;;;;;;;;;;28.43;70.51;101139.09;5081688;27;66302;-40
2023/01/11 01:10:20;;;;;;;;;;;;;;;28.44;70.03;101146.16;5080751;27;70363;-40
2023/01/11 01:15:41;;;;;;;;;;;;;;;28.46;70.12;101149.50;5081403;27;69642;-39
2023/01/11 01:18:12;;;;;;;;;;;;;;;28.43;70.39;101144.50;5085086;27;66232;-40
2023/01/11 01:20:43;;;;;;;;;;;;;;;28.48;70.35;101158.22;5089223;27;69604;-39
2023/01/11 01:23:14;;;;;;;;;;;;;;;28.49;69.97;101162.59;5087113;27;67005;-39
2023/01/11 01:25:45;;;;;;;;;;;;;;;28.50;70.28;101156.19;5086778;27;70968;-40
2023/01/11 01:28:17;;;;;;;;;;;;;;;28.51;70.34;101157.00;5084820;27;65366;-40
2023/01/11 01:30:51;;;;;;;;;;;;;;;28.52;70.03;101162.19;5084890;27;69521;-39
2023/01/11 01:33:23;;;;;;;;;;;;;;;28.54;70.32;101155.78;5086354;27;66949;-39
2023/01/11 01:35:53;;;;;;;;;;;;;;;28.55;70.01;101158.25;5065418;27;69788;-40
2023/01/11 01:38:24;;;;;;;;;;;;;;;28.55;69.93;101157.44;5085789;27;66175;-40
2023/01/11 01:40:55;;;;;;;;;;;;;;;28.57;69.93;101160.78;5087777;27;70339;-39
2023/01/11 01:43:44;;;;;;;;;;;;;;;28.59;70.03;101166.81;5086963;27;66513;-40
2023/01/11 01:46:16;;;;;;;;;;;;;;;28.59;69.77;101164.13;5083322;27;69647;-39
2023/01/11 01:48:51;;;;;;;;;;;;;;;28.59;70.31;101169.53;5083250;27;65360;-42
2023/01/11 01:51:25;;;;;;;;;;;;;;;28.61;69.82;101167.44;5087204;27;69628;-40
2023/01/11 01:53:58;;;;;;;;;;;;;;;28.60;69.86;101165.78;5095142;27;66138;-39
2023/01/11 01:56:34;;;;;;;;;;;;;;;28.62;69.89;101169.13;5087802;27;69249;-39
2023/01/11 01:59:11;;;;;;;;;;;;;;;28.63;70.04;101176.19;5088522;27;65744;-39
2023/01/11 02:01:48;;;;;;;;;;;;;;;28.64;69.64;101177.84;5075340;27;69617;-40
2023/01/11 02:04:22;;;;;;;;;;;;;;;28.64;69.76;101177.84;5090016;27;65496;-39
2023/01/11 02:06:58;;;;;;;;;;;;;;;28.65;69.19;101184.91;5079105;27;69525;-39
2023/01/11 02:09:32;;;;;;;;;;;;;;;28.64;69.71;101184.09;5087738;27;66696;-40
2023/01/11 02:12:02;;;;;;;;;;;;;;;28.65;69.20;101179.53;5084786;27;69239;-39
2023/01/11 02:14:34;;;;;;;;;;;;;;;28.66;69.47;101181.19;5086008;27;67373;-40
2023/01/11 02:17:06;;;;;;;;;;;;;;;28.67;69.26;101185.56;5089266;27;69910;-39
2023/01/11 02:19:36;;;;;;;;;;;;;;;28.67;69.45;101185.56;5068552;27;66260;-39
2023/01/11 02:22:16;;;;;;;;;;;;;;;28.68;68.98;101189.91;5086933;27;70057;-39
2023/01/11 02:24:52;;;;;;;;;;;;;;;28.69;69.41;101186.19;5086516;27;66681;-40
2023/01/11 02:27:28;;;;;;;;;;;;;;;28.70;69.49;101182.47;5065101;28;68763;-39
2023/01/11 02:30:12;;;;;;;;;;;;;;;28.72;68.94;101185.78;5079151;27;66336;-40
2023/01/11 02:32:50;;;;;;;;;;;;;;;28.71;69.33;101181.41;5052274;27;71993;-40
2023/01/11 02:35:24;;;;;;;;;;;;;;;28.72;68.89;101188.47;5067971;27;66027;-39
2023/01/11 02:37:55;;;;;;;;;;;;;;;28.74;68.92;101178.31;5069133;27;68963;-40
2023/01/11 02:40:41;;;;;;;;;;;;;;;28.76;69.21;101181.66;5086133;27;66886;-39
2023/01/11 02:46:32;;;;;;;;;;;;;;;28.78;69.55;101187.72;5081552;27;67384;-39
2023/01/11 02:49:05;;;;;;;;;;;;;;;28.79;68.95;101186.66;5079751;27;70252;-40
2023/01/11 02:52:02;;;;;;;;;;;;;;;28.81;69.51;101172.97;5085340;27;66828;-39
2023/01/11 02:54:33;;;;;;;;;;;;;;;28.79;68.95;101170.47;5078206;27;70944;-41
2023/01/11 02:57:05;;;;;;;;;;;;;;;28.84;68.88;101168.00;5080272;27;66252;-39
2023/01/11 02:59:37;;;;;;;;;;;;;;;28.85;68.99;101153.47;5080055;27;70610;-39
2023/01/11 03:02:08;;;;;;;;;;;;;;;28.87;69.34;101151.41;5083590;27;66696;-40
2023/01/11 03:04:39;;;;;;;;;;;;;;;28.90;69.01;101150.16;5064507;27;69732;-39
2023/01/11 03:07:10;;;;;;;;;;;;;;;28.91;69.43;101152.66;5084340;27;66062;-39
2023/01/11 03:09:52;;;;;;;;;;;;;;;28.92;69.13;101154.34;5088434;27;70377;-40
2023/01/11 03:12:53;;;;;;;;;;;;;;;28.94;69.28;101146.84;5091490;27;66615;-41
2023/01/11 03:15:30;;;;;;;;;;;;;;;28.94;68.71;101138.75;5090240;27;70107;-38
2023/01/11 03:18:01;;;;;;;;;;;;;;;28.96;69.15;101133.97;5091522;27;67031;-42
2023/01/11 03:20:36;;;;;;;;;;;;;;;29.00;69.13;101138.97;5085737;27;69771;-41
2023/01/11 03:23:12;;;;;;;;;;;;;;;29.01;68.54;101128.00;5088364;27;65998;-40
2023/01/11 03:25:45;;;;;;;;;;;;;;;29.03;68.59;101127.78;5086871;27;68938;-39
2023/01/11 03:28:21;;;;;;;;;;;;;;;29.03;68.35;101127.78;5092455;27;66039;-40
2023/01/11 03:31:14;;;;;;;;;;;;;;;29.05;68.69;101125.75;5083135;27;69155;-43
2023/01/11 03:33:48;;;;;;;;;;;;;;;29.06;68.85;101122.84;5087277;27;66564;-40
2023/01/11 03:36:21;;;;;;;;;;;;;;;29.09;68.90;101121.63;5076772;27;69725;-42
2023/01/11 03:38:53;;;;;;;;;;;;;;;29.12;68.94;101121.22;5091739;27;67458;-40
2023/01/11 03:41:26;;;;;;;;;;;;;;;29.14;69.13;101113.72;5088145;27;69673;-40
2023/01/11 03:43:59;;;;;;;;;;;;;;;29.16;68.66;101112.47;5091583;27;66027;-39
2023/01/11 03:46:32;;;;;;;;;;;;;;;29.18;69.07;101117.69;5092015;27;70691;-40
2023/01/11 03:49:16;;;;;;;;;;;;;;;29.20;68.64;101104.81;5082462;27;66854;-40
2023/01/11 03:51:47;;;;;;;;;;;;;;;29.24;68.28;101105.25;5068109;27;70451;-40
2023/01/11 03:54:23;;;;;;;;;;;;;;;29.24;68.34;101100.66;5087241;27;65631;-40
2023/01/11 03:56:59;;;;;;;;;;;;;;;29.25;67.74;101099.59;5093687;27;69312;-39
2023/01/11 03:59:31;;;;;;;;;;;;;;;29.28;67.58;101093.81;5089648;27;67052;-41
2023/01/11 04:02:01;;;;;;;;;;;;;;;29.29;67.93;101084.66;5086678;27;71180;-39
2023/01/11 04:04:32;;;;;;;;;;;;;;;29.32;67.34;101078.03;5082766;27;66005;-40
2023/01/11 04:07:03;;;;;;;;;;;;;;;29.33;67.55;101080.50;5086857;27;70056;-39
2023/01/11 04:09:34;;;;;;;;;;;;;;;29.35;67.26;101078.44;5090809;27;66204;-39
2023/01/11 04:12:06;;;;;;;;;;;;;;;29.38;67.49;101074.50;5089071;27;69523;-40
2023/01/11 04:14:37;;;;;;;;;;;;;;;29.39;67.28;101074.31;5088433;27;66381;-42
2023/01/11 04:17:08;;;;;;;;;;;;;;;29.43;67.39;101068.50;5071274;27;70348;-39
2023/01/11 04:19:38;;;;;;;;;;;;;;;29.42;66.72;101067.66;5091598;27;67321;-40
2023/01/11 04:22:09;;;;;;;;;;;;;;;29.48;67.28;101066.00;5086617;27;69476;-40
2023/01/11 04:24:40;;;;;;;;;;;;;;;29.50;66.76;101069.31;5087673;27;66151;-40
2023/01/11 04:27:11;;;;;;;;;;;;;;;29.52;67.20;101056.44;5087497;27;69328;-42
2023/01/11 04:29:41;;;;;;;;;;;;;;;29.53;67.13;101049.97;5091082;27;66435;-40
2023/01/11 04:32:12;;;;;;;;;;;;;;;29.56;67.05;101046.84;5094451;27;69767;-40
2023/01/11 04:34:43;;;;;;;;;;;;;;;29.57;66.91;101048.53;5083509;27;67044;-40
2023/01/11 04:37:13;;;;;;;;;;;;;;;29.60;66.37;101046.25;5083797;27;70155;-41
2023/01/11 04:39:44;;;;;;;;;;;;;;;29.63;66.30;101036.91;5072731;27;65900;-39
2023/01/11 04:42:18;;;;;;;;;;;;;;;29.65;66.49;101026.72;5088463;27;69228;-40
2023/01/11 04:44:49;;;;;;;;;;;;;;;29.67;66.35;101027.38;5081554;27;65278;-41
2023/01/11 04:47:21;;;;;;;;;;;;;;;29.69;66.71;101024.44;5082924;27;70038;-41
2023/01/11 04:49:52;;;;;;;;;;;;;;;29.72;66.23;101013.19;5091307;27;66197;-41
2023/01/11 04:52:23;;;;;;;;;;;;;;;29.74;66.53;101005.72;5093727;27;69821;-40
2023/01/11 04:54:54;;;;;;;;;;;;;;;29.76;66.57;101006.34;5090058;27;65974;-41
2023/01/11 04:57:24;;;;;;;;;;;;;;;29.78;66.61;101002.41;5092588;27;70078;-40
2023/01/11 04:59:56;;;;;;;;;;;;;;;29.79;66.55;101001.34;5096108;27;65911;-40
2023/01/11 05:02:26;;;;;;;;;;;;;;;29.81;65.92;100991.16;5093661;27;69790;-40
2023/01/11 05:04:57;;;;;;;;;;;;;;;29.84;66.12;100995.31;5095626;27;66191;-44
2023/01/11 05:07:28;;;;;;;;;;;;;;;29.86;65.88;100986.97;5093209;27;69010;-42
2023/01/11 05:09:59;;;;;;;;;;;;;;;29.86;66.27;100978.88;5090530;27;65523;-40
2023/01/11 05:12:30;;;;;;;;;;;;;;;29.89;66.63;100983.84;5067380;28;68918;-43
2023/01/11 05:15:01;;;;;;;;;;;;;;;29.88;66.06;100974.09;5080747;27;65438;-40
2023/01/11 05:17:31;;;;;;;;;;;;;;;29.87;66.19;100967.84;5080129;27;69716;-43
2023/01/11 05:20:03;;;;;;;;;;;;;;;29.89;66.43;100975.75;5083005;27;66818;-43
2023/01/11 05:22:33;;;;;;;;;;;;;;;29.88;66.59;100953.28;5079374;27;69889;-44
2023/01/11 05:25:05;;;;;;;;;;;;;;;29.89;66.21;100954.09;5085124;27;67471;-40
2023/01/11 05:27:35;;;;;;;;;;;;;;;29.89;66.66;100954.94;5083748;27;70028;-40
2023/01/11 05:30:07;;;;;;;;;;;;;;;29.90;66.33;100950.38;5081301;27;67176;-41
2023/01/11 05:32:38;;;;;;;;;;;;;;;29.91;66.89;100946.63;5081074;27;70312;-39
2023/01/11 05:35:10;;;;;;;;;;;;;;;29.92;66.41;100937.44;5081128;27;65421;-40
2023/01/11 05:37:42;;;;;;;;;;;;;;;29.92;66.46;100927.50;5064007;27;69914;-40
2023/01/11 05:40:13;;;;;;;;;;;;;;;29.93;66.40;100931.00;5082675;27;66903;-44
2023/01/11 05:42:44;;;;;;;;;;;;;;;29.95;66.61;100928.91;5080595;27;69910;-40
2023/01/11 05:45:27;;;;;;;;;;;;;;;29.94;66.83;100928.06;5078629;27;66949;-42
2023/01/11 05:47:59;;;;;;;;;;;;;;;29.96;66.94;100922.47;5083912;27;69981;-43
2023/01/11 05:50:29;;;;;;;;;;;;;;;29.97;67.08;100929.53;5080309;27;67406;-40
2023/01/11 05:53:00;;;;;;;;;;;;;;;29.97;66.49;100924.94;5071397;27;70349;-39
2023/01/11 05:55:31;;;;;;;;;;;;;;;29.98;66.58;100920.41;5082178;27;65349;-39
2023/01/11 05:58:03;;;;;;;;;;;;;;;29.99;67.12;100916.63;5086429;27;70430;-39
2023/01/11 06:00:34;;;;;;;;;;;;;;;29.97;66.93;100908.72;5084933;27;66029;-40
2023/01/11 06:03:05;;;;;;;;;;;;;;;29.98;66.84;100909.56;5079115;27;70392;-43
2023/01/11 06:05:37;;;;;;;;;;;;;;;29.99;67.15;100903.09;5079570;27;66609;-39
2023/01/11 06:08:08;;;;;;;;;;;;;;;29.99;67.00;100895.00;5082103;27;70307;-41
2023/01/11 06:10:39;;;;;;;;;;;;;;;29.97;66.58;100886.25;5082259;27;65622;-43
2023/01/11 06:13:27;;;;;;;;;;;;;;;30.01;66.79;100887.50;5083902;27;68968;-43
2023/01/11 06:15:59;;;;;;;;;;;;;;;30.02;66.78;100873.75;5085725;27;66778;-42
2023/01/11 06:18:31;;;;;;;;;;;;;;;30.03;67.09;100874.56;5082436;27;70280;-40
2023/01/11 06:21:03;;;;;;;;;;;;;;;30.03;67.17;100864.63;5086219;27;65807;-41
2023/01/11 06:23:36;;;;;;;;;;;;;;;30.03;67.16;100866.47;5077543;27;69286;-40
2023/01/11 06:26:08;;;;;;;;;;;;;;;30.05;66.65;100861.66;5080964;27;66607;-43
2023/01/11 06:28:39;;;;;;;;;;;;;;;30.05;66.74;100856.25;5091006;27;70533;-41
2023/01/11 06:31:10;;;;;;;;;;;;;;;30.06;66.54;100852.50;5070094;27;66979;-40
2023/01/11 06:33:43;;;;;;;;;;;;;;;30.02;67.01;100846.69;5082345;27;70385;-41
2023/01/11 06:36:14;;;;;;;;;;;;;;;30.07;66.51;100848.78;5076759;27;66400;-40
2023/01/11 06:38:47;;;;;;;;;;;;;;;30.09;66.87;100843.13;5083227;27;70014;-42
2023/01/11 06:41:18;;;;;;;;;;;;;;;30.09;66.56;100841.28;5069094;27;65700;-44
2023/01/11 06:43:49;;;;;;;;;;;;;;;30.10;66.93;100848.34;5081808;27;69067;-43
2023/01/11 06:46:20;;;;;;;;;;;;;;;30.11;66.91;100839.16;5077881;27;65496;-44
2023/01/11 06:48:51;;;;;;;;;;;;;;;30.10;66.63;100834.81;5092376;27;68193;-44
2023/01/11 06:51:22;;;;;;;;;;;;;;;30.12;66.91;100834.59;5086186;27;66872;-39
2023/01/11 06:53:53;;;;;;;;;;;;;;;30.12;66.44;100830.03;5091109;27;69408;-42
2023/01/11 06:56:24;;;;;;;;;;;;;;;30.13;66.77;100825.44;5086556;27;65526;-39
2023/01/11 06:58:54;;;;;;;;;;;;;;;30.14;66.63;100830.63;5078559;27;69998;-41
2023/01/11 07:01:26;;;;;;;;;;;;;;;30.14;66.51;100825.19;5089438;27;65901;-40
2023/01/11 07:03:56;;;;;;;;;;;;;;;30.15;66.55;100824.19;5085838;27;69464;-41
2023/01/11 07:06:30;;;;;;;;;;;;;;;30.13;66.95;100823.56;5090158;27;66014;-40
2023/01/11 07:09:01;;;;;;;;;;;;;;;30.16;66.83;100820.41;5084742;27;69497;-40
2023/01/11 07:11:33;;;;;;;;;;;;;;;30.16;66.49;100820.41;5092110;27;66384;-41
2023/01/11 07:14:05;;;;;;;;;;;;;;;30.18;66.88;100821.03;5081740;27;70497;-40
2023/01/11 07:16:35;;;;;;;;;;;;;;;30.19;66.66;100814.56;5084844;27;66905;-42
2023/01/11 07:19:06;;;;;;;;;;;;;;;30.19;66.70;100814.56;5062040;27;69954;-44
2023/01/11 07:21:37;;;;;;;;;;;;;;;30.20;66.43;100810.84;5081239;27;67075;-42
2023/01/11 07:24:08;;;;;;;;;;;;;;;30.21;66.86;100811.66;5081800;27;70065;-43
2023/01/11 07:26:40;;;;;;;;;;;;;;;30.22;66.80;100806.03;5060683;27;66536;-41
2023/01/11 07:29:11;;;;;;;;;;;;;;;30.23;66.84;100804.19;5082108;27;70281;-43
2023/01/11 07:31:41;;;;;;;;;;;;;;;30.22;66.83;100803.34;5082862;27;66210;-42
2023/01/11 07:34:13;;;;;;;;;;;;;;;30.24;66.33;100793.13;5080967;27;70334;-39
2023/01/11 07:36:43;;;;;;;;;;;;;;;30.24;66.75;100793.13;5080807;27;66462;-43
2023/01/11 07:39:14;;;;;;;;;;;;;;;30.26;66.70;100793.75;5083195;27;70693;-43
2023/01/11 07:44:50;;;;;;;;;;;;;;;30.27;66.54;100790.00;4998676;28;70362;-40
2023/01/11 07:47:21;;;;;;;;;;;;;;;30.27;65.86;100779.16;5068954;27;66789;-42
2023/01/11 07:49:52;;;;;;;;;;;;;;;30.28;64.29;100779.97;5083305;27;69991;-42
2023/01/11 07:52:23;;;;;;;;;;;;;;;30.31;65.37;100784.13;5081882;27;66943;-42
2023/01/11 07:54:54;;;;;;;;;;;;;;;30.30;63.51;100780.59;5083125;27;69265;-43
2023/01/11 07:57:24;;;;;;;;;;;;;;;30.32;62.71;100780.41;5092984;27;66529;-45
2023/01/11 07:59:55;;;;;;;;;;;;;;;30.37;63.20;100783.25;5076528;27;70312;-39
2023/01/11 08:02:26;;;;;;;;;;;;;;;30.40;64.24;100777.44;5088726;27;65914;-43
2023/01/11 08:04:58;;;;;;;;;;;;;;;30.39;62.60;100760.34;5086948;27;70479;-41
2023/01/11 08:07:31;;;;;;;;;;;;;;;30.42;63.31;100768.03;5087187;27;66040;-42
2023/01/11 08:10:02;;;;;;;;;;;;;;;30.43;64.15;100772.41;5092556;27;69474;-39
2023/01/11 08:15:23;;;;;;;;;;;;;;;30.43;64.97;100771.56;5087245;27;70707;-42
2023/01/11 08:17:53;;;;;;;;;;;;;;;30.42;64.73;100764.47;5075105;27;66009;-38
2023/01/11 08:20:25;;;;;;;;;;;;;;;30.42;65.33;100764.47;5095046;27;70024;-42
2023/01/11 08:22:56;;;;;;;;;;;;;;;30.43;65.04;100760.75;5100251;27;66921;-39
2023/01/11 08:25:27;;;;;;;;;;;;;;;30.43;64.88;100749.91;5093975;27;69157;-39
2023/01/11 08:28:01;;;;;;;;;;;;;;;30.43;65.43;100755.34;5093289;27;66467;-39
2023/01/11 08:30:33;;;;;;;;;;;;;;;30.44;65.24;100759.69;5086945;27;69433;-39
2023/01/11 08:33:04;;;;;;;;;;;;;;;30.44;65.52;100756.97;5087673;27;66221;-39
2023/01/11 08:35:38;;;;;;;;;;;;;;;30.44;64.96;100757.81;5087054;27;69449;-39
2023/01/11 08:38:09;;;;;;;;;;;;;;;30.46;65.56;100760.31;5094698;27;66816;-40
2023/01/11 08:40:40;;;;;;;;;;;;;;;30.46;65.00;100763.00;5093474;27;70562;-42
2023/01/11 08:43:11;;;;;;;;;;;;;;;30.46;65.35;100763.00;5084953;27;67136;-38
2023/01/11 08:45:42;;;;;;;;;;;;;;;30.47;65.75;100761.94;5095413;27;70881;-37
2023/01/11 08:48:14;;;;;;;;;;;;;;;30.47;65.71;100761.94;5092827;27;66618;-38
2023/01/11 08:50:45;;;;;;;;;;;;;;;30.47;65.29;100756.53;5092342;27;70004;-38
2023/01/11 08:53:16;;;;;;;;;;;;;;;30.48;65.37;100758.22;5087990;27;65871;-38
2023/01/11 08:55:48;;;;;;;;;;;;;;;30.48;65.67;100758.22;5086014;27;70397;-38
2023/01/11 08:58:19;;;;;;;;;;;;;;;30.47;65.45;100764.66;5085495;27;65575;-39
2023/01/11 09:00:50;;;;;;;;;;;;;;;30.48;65.89;100763.63;5082128;27;69088;-41
2023/01/11 09:03:21;;;;;;;;;;;;;;;30.48;65.45;100767.16;5064752;28;65611;-38
2023/01/11 09:05:52;;;;;;;;;;;;;;;30.50;65.52;100766.91;5084180;27;70395;-39
2023/01/11 09:08:24;;;;;;;;;;;;;;;30.48;65.24;100759.03;5074309;27;66303;-41
2023/01/11 09:10:58;;;;;;;;;;;;;;;30.49;65.17;100765.28;5083142;27;70426;-39
2023/01/11 09:13:29;;;;;;;;;;;;;;;30.50;64.94;100766.91;5083378;27;66857;-40
2023/01/11 09:16:00;;;;;;;;;;;;;;;30.49;64.84;100765.28;5096016;27;69452;-39
2023/01/11 09:18:31;;;;;;;;;;;;;;;30.59;64.49;100765.63;5094978;27;65361;-40
2023/01/11 09:21:01;;;;;;;;;;;;;;;30.60;64.54;100772.69;5064503;27;70555;-40
2023/01/11 09:23:32;;;;;;;;;;;;;;;30.56;65.22;100771.44;5082232;27;66002;-42
2023/01/11 09:26:03;;;;;;;;;;;;;;;30.50;64.83;100777.75;5080068;27;69940;-40
2023/01/11 09:28:33;;;;;;;;;;;;;;;30.46;65.16;100777.38;5090890;27;64924;-40
2023/01/11 09:31:04;;;;;;;;;;;;;;;30.42;65.12;100781.56;5074347;27;70115;-40
2023/01/11 09:33:37;;;;;;;;;;;;;;;30.39;65.41;100778.47;5090201;27;66479;-40
2023/01/11 09:36:08;;;;;;;;;;;;;;;30.35;66.01;100779.97;5081940;27;69170;-39
2023/01/11 09:38:39;;;;;;;;;;;;;;;30.32;65.65;100775.81;5086670;27;66944;-40
2023/01/11 09:41:29;;;;;;;;;;;;;;;30.32;65.98;100781.22;5086175;27;69351;-40
2023/01/11 09:44:05;;;;;;;;;;;;;;;30.34;65.42;100786.41;5082838;27;65607;-43
2023/01/11 09:46:38;;;;;;;;;;;;;;;30.31;65.70;100784.13;5084738;27;69216;-42
2023/01/11 09:49:16;;;;;;;;;;;;;;;30.25;65.76;100781.25;5092609;27;66756;-40
2023/01/11 09:51:48;;;;;;;;;;;;;;;30.30;65.93;100787.91;5085051;27;70773;-39
2023/01/11 09:54:26;;;;;;;;;;;;;;;30.30;66.32;100783.31;5084873;27;65171;-39
2023/01/11 09:57:05;;;;;;;;;;;;;;;30.33;65.82;100792.88;5097592;27;69362;-38
2023/01/11 09:59:49;;;;;;;;;;;;;;;30.31;65.83;100789.53;5055911;27;65223;-43
2023/01/11 10:02:22;;;;;;;;;;;;;;;30.32;65.79;100788.50;5090576;27;69910;-39
2023/01/11 10:05:02;;;;;;;;;;;;;;;30.33;65.76;100792.88;5087300;27;66660;-39
2023/01/11 10:08:06;;;;;;;;;;;;;;;30.28;66.00;100786.25;5081993;27;70565;-39
2023/01/11 10:11:04;;;;;;;;;;;;;;;30.31;66.23;100803.06;5055587;27;66681;-42
2023/01/11 10:13:56;;;;;;;;;;;;;;;30.27;65.91;100798.09;5084022;27;70379;-41
2023/01/11 10:17:00;;;;;;;;;;;;;;;30.28;65.31;100805.19;5084377;27;66550;-38
2023/01/11 10:20:00;;;;;;;;;;;;;;;30.23;65.55;100805.00;5052998;27;68540;-38
2023/01/11 10:22:38;;;;;;;;;;;;;;;30.29;65.88;100803.31;5082682;27;65593;-41
2023/01/11 10:25:15;;;;;;;;;;;;;;;30.29;65.82;100806.00;5086629;27;68132;-41
2023/01/11 10:27:55;;;;;;;;;;;;;;;30.30;65.35;100804.97;5083078;27;66201;-43
2023/01/11 10:30:34;;;;;;;;;;;;;;;30.35;65.45;100807.03;5089436;27;70433;-42
2023/01/11 10:39:45;;;;;;;;;;;;;;;30.23;65.80;100813.13;5087612;27;66232;-40
2023/01/11 10:41:53;;;;;;;;;;;;;;;30.30;66.43;100826.59;5074961;27;70415;-40
2023/01/11 10:44:31;;;;;;;;;;;;;;;30.36;66.53;100830.31;5087628;27;66876;-39
2023/01/11 10:47:03;;;;;;;;;;;;;;;30.39;66.88;100829.88;5087484;27;69386;-38
2023/01/11 10:49:46;;;;;;;;;;;;;;;30.41;66.02;100825.91;5088914;27;67194;-39
2023/01/11 10:52:17;;;;;;;;;;;;;;;30.43;66.39;100823.81;5085524;27;69471;-38
2023/01/11 10:54:53;;;;;;;;;;;;;;;30.46;65.56;100822.56;5088914;27;65797;-38
2023/01/11 10:57:41;;;;;;;;;;;;;;;30.47;65.81;100826.91;5087241;27;71560;-45
2023/01/11 11:00:35;;;;;;;;;;;;;;;30.48;65.09;100826.72;5084167;27;65655;-39
2023/01/11 11:03:27;;;;;;;;;;;;;;;30.50;66.45;100829.19;5086785;27;69743;-40
2023/01/11 11:06:10;;;;;;;;;;;;;;;30.51;65.99;100833.56;5086607;27;66939;-39
2023/01/11 11:08:50;;;;;;;;;;;;;;;30.51;65.45;100833.56;5087496;27;69306;-39
2023/01/11 11:11:21;;;;;;;;;;;;;;;30.49;64.33;100841.06;5084987;27;66957;-40
2023/01/11 11:13:55;;;;;;;;;;;;;;;30.47;64.49;100838.56;5088179;27;69532;-41
2023/01/11 11:16:26;;;;;;;;;;;;;;;30.46;64.33;100852.34;5086601;27;66330;-42
2023/01/11 11:18:58;;;;;;;;;;;;;;;30.45;64.07;100850.66;5086608;27;70960;-40
2023/01/11 11:21:32;;;;;;;;;;;;;;;30.44;64.20;100847.13;5070690;27;66923;-39
2023/01/11 11:24:12;;;;;;;;;;;;;;;30.43;63.98;100847.34;5087249;27;69963;-40
2023/01/11 11:26:46;;;;;;;;;;;;;;;30.42;63.60;100853.78;5087281;27;66542;-40
2023/01/11 11:29:21;;;;;;;;;;;;;;;30.40;63.38;100853.22;5087520;27;69317;-42
2023/01/11 11:31:52;;;;;;;;;;;;;;;30.40;63.50;100862.16;5091599;27;66164;-40
2023/01/11 11:34:26;;;;;;;;;;;;;;;30.38;63.27;100860.69;5066209;27;69231;-40
2023/01/11 11:36:58;;;;;;;;;;;;;;;30.36;63.39;100868.19;5084884;27;65581;-40
2023/01/11 11:39:30;;;;;;;;;;;;;;;30.35;63.65;100861.16;5087008;27;69872;-39
2023/01/11 11:42:07;;;;;;;;;;;;;;;30.35;63.22;100869.25;5085605;27;64608;-41
2023/01/11 11:44:39;;;;;;;;;;;;;;;30.34;63.91;100875.69;5085119;27;70444;-40
2023/01/11 11:47:16;;;;;;;;;;;;;;;30.33;63.58;100874.88;5085367;27;66533;-43
2023/01/11 11:49:48;;;;;;;;;;;;;;;30.34;63.58;100875.69;5083758;27;69258;-40
2023/01/11 11:52:19;;;;;;;;;;;;;;;30.32;63.50;100878.63;5086448;27;65698;-40
2023/01/11 11:54:56;;;;;;;;;;;;;;;30.32;63.61;100877.81;5087476;27;70645;-39
2023/01/11 11:57:29;;;;;;;;;;;;;;;30.34;63.54;100878.41;5065321;27;65681;-42
2023/01/11 12:00:02;;;;;;;;;;;;;;;30.42;64.46;100872.75;5084965;27;69316;-40
2023/01/11 12:02:35;;;;;;;;;;;;;;;30.47;64.50;100887.28;5084290;27;66370;-40
2023/01/11 12:05:08;;;;;;;;;;;;;;;30.59;63.74;100890.16;5076360;27;70116;-43
2023/01/11 12:07:44;;;;;;;;;;;;;;;30.57;65.10;100891.41;5080334;27;66682;-41
2023/01/11 12:10:24;;;;;;;;;;;;;;;30.51;65.55;100898.53;5077515;27;70503;-39
2023/01/11 12:13:00;;;;;;;;;;;;;;;30.45;65.74;100896.66;5064673;28;66032;-44
2023/01/11 12:15:32;;;;;;;;;;;;;;;30.42;66.13;100900.66;5058388;27;70006;-45
2023/01/11 12:18:21;;;;;;;;;;;;;;;30.37;66.66;100907.75;5083013;27;66793;-43
2023/01/11 12:20:52;;;;;;;;;;;;;;;30.39;66.67;100898.34;5058326;27;69733;-39
2023/01/11 12:23:24;;;;;;;;;;;;;;;30.31;67.27;100898.59;5078365;27;67039;-41
2023/01/11 12:26:14;;;;;;;;;;;;;;;30.35;67.14;100909.84;5079747;27;69685;-43
2023/01/11 12:28:56;;;;;;;;;;;;;;;30.32;67.25;100913.00;5081585;27;67366;-46
2023/01/11 12:31:49;;;;;;;;;;;;;;;30.28;67.37;100910.72;5078027;27;69355;-42
2023/01/11 12:34:19;;;;;;;;;;;;;;;30.26;67.79;100912.81;5082606;27;66848;-39
2023/01/11 12:36:56;;;;;;;;;;;;;;;30.28;67.12;100920.69;5074854;27;69989;-41
2023/01/11 12:39:27;;;;;;;;;;;;;;;30.25;68.33;100921.94;5080217;27;65512;-40
2023/01/11 12:42:06;;;;;;;;;;;;;;;30.23;68.08;100921.34;5060368;27;70377;-44
2023/01/11 12:44:57;;;;;;;;;;;;;;;30.31;68.21;100935.66;5027584;27;65613;-43
2023/01/11 12:47:40;;;;;;;;;;;;;;;30.32;68.15;100937.34;5056670;27;69425;-45
2023/01/11 12:50:11;;;;;;;;;;;;;;;30.32;68.30;100943.59;5059781;27;63582;-41
2023/01/11 12:52:41;;;;;;;;;;;;;;;30.32;68.33;100942.75;5080817;27;70318;-39
2023/01/11 12:55:32;;;;;;;;;;;;;;;30.30;67.96;100952.97;5057730;27;66776;-40
2023/01/11 12:58:16;;;;;;;;;;;;;;;30.28;68.06;100948.59;5061786;27;69208;-43
2023/01/11 13:00:56;;;;;;;;;;;;;;;30.33;68.46;100952.53;5081392;27;65666;-41
2023/01/11 13:03:33;;;;;;;;;;;;;;;30.30;68.83;100951.09;5079373;27;69437;-44
2023/01/11 13:06:07;;;;;;;;;;;;;;;30.36;68.83;100954.81;5083830;27;66033;-42
2023/01/11 13:08:52;;;;;;;;;;;;;;;30.34;68.99;100951.47;5073651;27;70179;-40
2023/01/11 13:11:34;;;;;;;;;;;;;;;30.34;69.71;100957.75;5081370;27;65405;-44
2023/01/11 13:14:24;;;;;;;;;;;;;;;30.33;69.73;100955.25;5079569;27;70688;-42
2023/01/11 13:17:04;;;;;;;;;;;;;;;30.35;69.31;100963.97;5085787;27;66777;-41
2023/01/11 13:19:38;;;;;;;;;;;;;;;30.35;69.21;100961.28;5082731;27;70367;-42
2023/01/11 13:22:13;;;;;;;;;;;;;;;30.37;69.20;100961.88;5059575;27;65392;-43
2023/01/11 13:24:48;;;;;;;;;;;;;;;30.35;69.38;100969.41;5053610;27;69235;-40
2023/01/11 13:27:22;;;;;;;;;;;;;;;30.32;69.07;100976.06;5077510;27;66819;-40
2023/01/11 13:29:59;;;;;;;;;;;;;;;30.31;69.37;100973.56;5087895;27;69910;-41
2023/01/11 13:32:35;;;;;;;;;;;;;;;30.32;68.22;100975.25;5072855;27;66173;-40
2023/01/11 13:35:18;;;;;;;;;;;;;;;30.31;68.15;100978.97;5072628;27;70701;-43
2023/01/11 13:38:25;;;;;;;;;;;;;;;30.28;68.65;100980.22;5061812;27;66751;-41